Time;durP1;ratioP1;P1;durP2;ratioP2;P2;SDS_P1;SDS_P2;PMS_P1;PMS_P2;Temp;Humidity;BMP_temperature;BMP_pressure;BME280_temperature;BME280_humidity;BME280_pressure;Samples;Min_cycle;Max_cycle;Signal;HPM_P1;HPM_P2
2023/05/06 00:01:38;;;;;;;3.27;1.70;;;;;;;;;;5060287;28;20210;-61
2023/05/06 00:04:05;;;;;;;3.10;1.40;;;;;;;;;;5060014;28;20257;-61
2023/05/06 00:06:34;;;;;;;3.70;1.37;;;;;;;;;;5060024;28;20230;-61
2023/05/06 00:09:03;;;;;;;3.63;1.70;;;;;;;;;;5060018;28;20245;-61
2023/05/06 00:11:31;;;;;;;2.00;1.57;;;;;;;;;;5060120;28;20211;-61
2023/05/06 00:13:59;;;;;;;2.40;1.40;;;;;;;;;;5060084;28;20313;-61
2023/05/06 00:16:27;;;;;;;2.93;1.40;;;;;;;;;;5059699;28;20230;-61
2023/05/06 00:18:55;;;;;;;2.13;1.50;;;;;;;;;;5060045;28;20214;-61
2023/05/06 00:21:23;;;;;;;4.40;1.47;;;;;;;;;;5059670;28;20302;-61
2023/05/06 00:23:51;;;;;;;1.90;1.40;;;;;;;;;;5059198;28;20702;-61
2023/05/06 00:26:20;;;;;;;2.27;1.40;;;;;;;;;;5059454;28;20223;-61
2023/05/06 00:28:48;;;;;;;2.30;1.30;;;;;;;;;;5059803;28;20293;-61
2023/05/06 00:31:16;;;;;;;1.30;1.20;;;;;;;;;;5059601;28;20666;-61
2023/05/06 00:33:44;;;;;;;1.50;1.40;;;;;;;;;;5059321;28;20226;-61
2023/05/06 00:36:12;;;;;;;2.30;1.20;;;;;;;;;;5059398;28;20801;-62
2023/05/06 00:38:40;;;;;;;2.17;1.33;;;;;;;;;;5059001;28;20211;-61
2023/05/06 00:41:08;;;;;;;2.73;1.30;;;;;;;;;;5059835;28;20214;-61
2023/05/06 00:43:38;;;;;;;1.10;1.10;;;;;;;;;;5059483;28;20237;-61
2023/05/06 00:46:06;;;;;;;1.80;1.27;;;;;;;;;;5059249;28;20657;-61
2023/05/06 00:48:34;;;;;;;2.23;1.43;;;;;;;;;;5059380;28;20218;-61
2023/05/06 00:51:02;;;;;;;3.57;1.80;;;;;;;;;;5054623;28;20298;-61
2023/05/06 00:53:31;;;;;;;3.80;1.70;;;;;;;;;;5048932;28;20214;-61
2023/05/06 00:55:59;;;;;;;2.93;1.27;;;;;;;;;;5048776;28;20627;-61
2023/05/06 00:58:27;;;;;;;4.10;2.00;;;;;;;;;;5048919;28;20258;-61
2023/05/06 01:00:57;;;;;;;2.93;1.63;;;;;;;;;;5048815;28;20285;-61
2023/05/06 01:03:25;;;;;;;2.37;1.83;;;;;;;;;;5046471;28;20655;-63
2023/05/06 01:05:58;;;;;;;1.63;1.53;;;;;;;;;;5047640;28;20314;-61
2023/05/06 01:08:29;;;;;;;1.77;1.67;;;;;;;;;;5046565;28;20200;-61
2023/05/06 01:11:02;;;;;;;2.13;1.30;;;;;;;;;;5048912;28;20257;-62
2023/05/06 01:13:34;;;;;;;1.60;1.40;;;;;;;;;;5047797;28;20233;-61
2023/05/06 01:16:05;;;;;;;2.27;1.63;;;;;;;;;;5048468;28;20218;-61
2023/05/06 01:18:33;;;;;;;2.17;1.90;;;;;;;;;;5048910;28;20195;-61
2023/05/06 01:21:04;;;;;;;2.83;1.53;;;;;;;;;;5046846;28;20572;-61
2023/05/06 01:23:47;;;;;;;3.50;1.60;;;;;;;;;;5045197;28;20226;-61
2023/05/06 01:26:16;;;;;;;2.70;1.63;;;;;;;;;;5047827;28;20304;-61
2023/05/06 01:28:44;;;;;;;3.20;1.37;;;;;;;;;;5047882;28;20283;-61
2023/05/06 01:31:13;;;;;;;2.60;1.67;;;;;;;;;;5047521;28;20250;-61
2023/05/06 01:33:46;;;;;;;4.60;1.53;;;;;;;;;;5049739;28;20309;-61
2023/05/06 01:36:17;;;;;;;1.87;1.47;;;;;;;;;;5047282;28;20311;-61
2023/05/06 01:38:51;;;;;;;2.93;1.77;;;;;;;;;;5054160;28;20203;-60
2023/05/06 01:41:21;;;;;;;2.67;1.70;;;;;;;;;;5049557;28;20211;-61
2023/05/06 01:43:49;;;;;;;3.23;1.50;;;;;;;;;;5038454;28;20207;-61
2023/05/06 01:46:18;;;;;;;1.87;1.43;;;;;;;;;;5038200;28;20228;-61
2023/05/06 01:48:48;;;;;;;3.77;1.80;;;;;;;;;;5038284;28;20208;-62
2023/05/06 01:51:16;;;;;;;3.30;1.43;;;;;;;;;;5038335;28;20701;-61
2023/05/06 01:53:44;;;;;;;4.10;1.83;;;;;;;;;;5037640;28;20258;-60
2023/05/06 01:56:13;;;;;;;3.70;1.27;;;;;;;;;;5038301;28;20234;-61
2023/05/06 01:58:42;;;;;;;2.63;1.50;;;;;;;;;;5056519;28;20239;-61
2023/05/06 02:01:10;;;;;;;5.80;1.97;;;;;;;;;;5058090;28;20222;-61
2023/05/06 02:03:38;;;;;;;2.10;1.50;;;;;;;;;;5057815;28;20254;-61
2023/05/06 02:06:06;;;;;;;4.70;1.77;;;;;;;;;;5058006;28;20233;-61
2023/05/06 02:08:34;;;;;;;2.47;1.37;;;;;;;;;;5057425;28;20214;-61
2023/05/06 02:11:02;;;;;;;3.17;1.63;;;;;;;;;;5057948;28;20211;-63
2023/05/06 02:13:30;;;;;;;3.07;1.50;;;;;;;;;;5057923;28;20223;-62
2023/05/06 02:16:00;;;;;;;3.43;1.80;;;;;;;;;;5057028;28;20227;-61
2023/05/06 02:18:28;;;;;;;2.47;1.20;;;;;;;;;;5057943;28;20206;-63
2023/05/06 02:20:56;;;;;;;2.43;1.80;;;;;;;;;;5057546;28;20207;-62
2023/05/06 02:23:24;;;;;;;2.57;1.30;;;;;;;;;;5057139;28;20281;-63
2023/05/06 02:25:52;;;;;;;2.00;1.90;;;;;;;;;;5057583;28;20230;-63
2023/05/06 02:28:20;;;;;;;2.97;2.50;;;;;;;;;;5057874;28;20293;-63
2023/05/06 02:30:48;;;;;;;3.33;1.63;;;;;;;;;;5057463;28;20218;-62
2023/05/06 02:33:17;;;;;;;3.00;1.60;;;;;;;;;;5057451;28;20310;-61
2023/05/06 02:35:45;;;;;;;2.10;1.90;;;;;;;;;;5057607;28;20265;-62
2023/05/06 02:38:13;;;;;;;1.83;1.60;;;;;;;;;;5057157;28;20207;-63
2023/05/06 02:40:41;;;;;;;4.43;1.83;;;;;;;;;;5057641;28;20237;-63
2023/05/06 02:43:09;;;;;;;3.47;1.50;;;;;;;;;;5057450;28;20230;-63
2023/05/06 02:45:37;;;;;;;4.07;1.87;;;;;;;;;;5057239;28;20222;-63
2023/05/06 02:48:06;;;;;;;1.93;1.50;;;;;;;;;;5057398;28;20218;-63
2023/05/06 02:50:35;;;;;;;3.80;1.63;;;;;;;;;;5057262;28;20250;-62
2023/05/06 02:53:03;;;;;;;3.67;1.53;;;;;;;;;;5057194;28;20238;-63
2023/05/06 02:55:31;;;;;;;4.07;1.70;;;;;;;;;;5057640;28;20237;-63
2023/05/06 02:57:59;;;;;;;2.70;1.50;;;;;;;;;;5057418;28;20203;-63
2023/05/06 03:00:27;;;;;;;3.13;1.67;;;;;;;;;;5057223;28;20207;-63
2023/05/06 03:02:55;;;;;;;1.60;1.50;;;;;;;;;;5057401;28;20260;-62
2023/05/06 03:05:23;;;;;;;3.27;1.50;;;;;;;;;;5057031;28;20219;-62
2023/05/06 03:07:52;;;;;;;1.50;1.40;;;;;;;;;;5057055;28;20213;-61
2023/05/06 03:10:21;;;;;;;1.97;1.63;;;;;;;;;;5057217;28;20215;-61
2023/05/06 03:12:49;;;;;;;3.33;1.80;;;;;;;;;;5057075;28;20238;-60
2023/05/06 03:15:17;;;;;;;1.80;1.70;;;;;;;;;;5057027;28;20231;-62
2023/05/06 03:17:46;;;;;;;2.53;1.90;;;;;;;;;;5057020;28;20289;-61
2023/05/06 03:20:15;;;;;;;1.80;1.70;;;;;;;;;;5057140;28;20207;-61
2023/05/06 03:22:42;;;;;;;6.30;1.90;;;;;;;;;;5056505;28;20779;-61
2023/05/06 03:25:12;;;;;;;2.93;2.73;;;;;;;;;;5057306;28;20306;-61
2023/05/06 03:27:40;;;;;;;2.77;2.00;;;;;;;;;;5060755;28;20206;-61
2023/05/06 03:30:09;;;;;;;1.97;1.77;;;;;;;;;;5061021;28;20294;-61
2023/05/06 03:32:37;;;;;;;1.97;1.40;;;;;;;;;;5060877;28;20266;-61
2023/05/06 03:35:07;;;;;;;2.13;1.53;;;;;;;;;;5060537;28;20289;-61
2023/05/06 03:37:35;;;;;;;1.87;1.70;;;;;;;;;;5050752;28;20203;-61
2023/05/06 03:40:04;;;;;;;2.03;1.73;;;;;;;;;;5049065;28;20226;-61
2023/05/06 03:42:34;;;;;;;2.73;2.10;;;;;;;;;;5050517;28;20202;-61
2023/05/06 03:45:02;;;;;;;3.27;1.63;;;;;;;;;;5049416;28;20206;-61
2023/05/06 03:47:30;;;;;;;2.20;1.60;;;;;;;;;;5049787;28;20273;-61
2023/05/06 03:49:58;;;;;;;2.53;1.60;;;;;;;;;;5052170;28;20615;-62
2023/05/06 03:52:26;;;;;;;3.33;1.67;;;;;;;;;;5046206;28;20706;-61
2023/05/06 03:54:54;;;;;;;2.33;1.90;;;;;;;;;;5040244;28;20224;-61
2023/05/06 03:57:22;;;;;;;1.77;1.67;;;;;;;;;;5048269;28;20198;-62
2023/05/06 03:59:51;;;;;;;3.17;1.60;;;;;;;;;;5060375;28;20203;-61
2023/05/06 04:02:19;;;;;;;2.80;2.17;;;;;;;;;;5060066;28;20207;-62
2023/05/06 04:04:47;;;;;;;4.00;2.00;;;;;;;;;;5060171;28;20241;-61
2023/05/06 04:07:15;;;;;;;5.17;2.53;;;;;;;;;;5059709;28;20627;-61
2023/05/06 04:09:43;;;;;;;7.03;2.50;;;;;;;;;;5059956;28;20285;-62
2023/05/06 04:12:11;;;;;;;3.47;2.00;;;;;;;;;;5060239;28;20211;-62
2023/05/06 04:14:39;;;;;;;2.10;1.87;;;;;;;;;;5059996;28;20309;-62
2023/05/06 04:17:08;;;;;;;3.00;1.93;;;;;;;;;;5059826;28;20227;-62
2023/05/06 04:19:36;;;;;;;3.97;1.67;;;;;;;;;;5059932;28;20230;-62
2023/05/06 04:22:04;;;;;;;2.53;2.17;;;;;;;;;;5059641;28;20246;-62
2023/05/06 04:24:32;;;;;;;6.83;3.63;;;;;;;;;;5046592;28;20317;-63
2023/05/06 04:27:01;;;;;;;5.00;2.50;;;;;;;;;;5059639;28;20702;-63
2023/05/06 04:29:29;;;;;;;3.07;2.30;;;;;;;;;;5059507;28;20206;-63
2023/05/06 04:31:57;;;;;;;3.97;2.30;;;;;;;;;;5059604;28;20235;-62
2023/05/06 04:34:27;;;;;;;4.93;2.53;;;;;;;;;;5059680;28;20265;-62
2023/05/06 04:36:57;;;;;;;2.83;2.30;;;;;;;;;;5059136;28;20238;-62
2023/05/06 04:39:24;;;;;;;5.27;2.87;;;;;;;;;;5058768;28;20214;-62
2023/05/06 04:41:53;;;;;;;3.23;2.77;;;;;;;;;;5059362;28;20206;-62
2023/05/06 04:44:21;;;;;;;3.93;2.30;;;;;;;;;;5059289;28;20210;-62
2023/05/06 04:46:49;;;;;;;5.10;3.27;;;;;;;;;;5059185;28;20234;-62
2023/05/06 04:49:17;;;;;;;2.87;2.57;;;;;;;;;;5059535;28;20219;-62
2023/05/06 04:51:46;;;;;;;8.93;3.30;;;;;;;;;;5059282;28;20241;-63
2023/05/06 04:54:14;;;;;;;5.23;4.03;;;;;;;;;;5058882;28;20234;-63
2023/05/06 04:56:42;;;;;;;7.20;3.17;;;;;;;;;;5058905;28;20732;-64
2023/05/06 04:59:10;;;;;;;5.10;3.50;;;;;;;;;;5059335;28;20214;-63
2023/05/06 05:01:38;;;;;;;3.87;2.97;;;;;;;;;;5059191;28;20261;-63
2023/05/06 05:04:06;;;;;;;4.13;3.10;;;;;;;;;;5059249;28;20213;-63
2023/05/06 05:06:34;;;;;;;4.80;3.20;;;;;;;;;;5058640;28;20249;-63
2023/05/06 05:09:03;;;;;;;3.93;3.50;;;;;;;;;;5058934;28;20233;-63
2023/05/06 05:11:31;;;;;;;3.43;3.13;;;;;;;;;;5058809;28;20211;-63
2023/05/06 05:13:59;;;;;;;6.43;3.50;;;;;;;;;;5058786;28;20253;-62
2023/05/06 05:16:29;;;;;;;5.13;3.10;;;;;;;;;;5058833;28;20309;-63
2023/05/06 05:18:57;;;;;;;4.87;3.40;;;;;;;;;;5059028;28;20215;-62
2023/05/06 05:21:27;;;;;;;3.27;2.97;;;;;;;;;;5058414;28;20210;-63
2023/05/06 05:23:55;;;;;;;4.70;3.73;;;;;;;;;;5058206;28;20317;-63
2023/05/06 05:26:25;;;;;;;5.00;3.90;;;;;;;;;;5058095;28;20226;-63
2023/05/06 05:28:52;;;;;;;3.63;3.33;;;;;;;;;;5058721;28;20203;-63
2023/05/06 05:31:20;;;;;;;8.20;3.43;;;;;;;;;;5045270;28;20256;-63
2023/05/06 05:33:48;;;;;;;4.03;3.63;;;;;;;;;;5058588;28;20289;-63
2023/05/06 05:36:16;;;;;;;3.43;3.13;;;;;;;;;;5058185;28;20636;-63
2023/05/06 05:38:46;;;;;;;3.70;3.40;;;;;;;;;;5058023;28;20222;-63
2023/05/06 05:41:14;;;;;;;4.50;3.27;;;;;;;;;;5057987;28;20211;-63
2023/05/06 05:43:45;;;;;;;5.17;3.33;;;;;;;;;;5058056;28;20676;-62
2023/05/06 05:46:13;;;;;;;4.07;3.07;;;;;;;;;;5058357;28;20227;-63
2023/05/06 05:48:42;;;;;;;5.50;3.43;;;;;;;;;;5058314;28;20203;-62
2023/05/06 05:51:10;;;;;;;6.27;3.90;;;;;;;;;;5058352;28;20218;-63
2023/05/06 05:53:38;;;;;;;7.97;3.13;;;;;;;;;;5057676;28;20309;-62
2023/05/06 05:56:06;;;;;;;4.13;3.00;;;;;;;;;;5057877;28;20722;-63
2023/05/06 05:58:34;;;;;;;6.33;3.10;;;;;;;;;;5057871;28;20207;-62
2023/05/06 06:01:04;;;;;;;4.50;3.07;;;;;;;;;;5058099;28;20238;-64
2023/05/06 06:03:32;;;;;;;3.23;2.50;;;;;;;;;;5058111;28;20220;-64
2023/05/06 06:06:00;;;;;;;4.43;2.60;;;;;;;;;;5057982;28;20223;-64
2023/05/06 06:08:28;;;;;;;3.60;2.40;;;;;;;;;;5057677;28;20211;-64
2023/05/06 06:10:56;;;;;;;2.80;2.60;;;;;;;;;;5057778;28;20268;-64
2023/05/06 06:13:24;;;;;;;5.97;2.40;;;;;;;;;;5057685;28;20649;-65
2023/05/06 06:15:55;;;;;;;4.93;3.03;;;;;;;;;;5057632;28;20289;-64
2023/05/06 06:18:25;;;;;;;4.03;2.60;;;;;;;;;;5058078;28;20215;-64
2023/05/06 06:20:53;;;;;;;4.03;2.83;;;;;;;;;;5057601;28;20678;-64
2023/05/06 06:23:21;;;;;;;5.03;2.23;;;;;;;;;;5057177;28;20659;-65
2023/05/06 06:25:49;;;;;;;5.57;3.00;;;;;;;;;;5057575;28;20211;-65
2023/05/06 06:28:17;;;;;;;2.80;2.60;;;;;;;;;;5057830;28;20221;-64
2023/05/06 06:30:45;;;;;;;3.33;2.80;;;;;;;;;;5057892;28;20221;-65
2023/05/06 06:33:13;;;;;;;5.57;2.90;;;;;;;;;;5057502;28;20241;-64
2023/05/06 06:35:42;;;;;;;5.00;3.00;;;;;;;;;;5057099;28;20570;-64
2023/05/06 06:38:10;;;;;;;5.40;2.80;;;;;;;;;;5057302;28;20238;-65
2023/05/06 06:40:38;;;;;;;3.60;3.27;;;;;;;;;;5057355;28;20718;-65
2023/05/06 06:43:09;;;;;;;3.20;2.73;;;;;;;;;;5057450;28;20578;-65
2023/05/06 06:45:37;;;;;;;2.63;2.43;;;;;;;;;;5057500;28;20258;-65
2023/05/06 06:48:05;;;;;;;2.97;2.60;;;;;;;;;;5057886;28;20216;-65
2023/05/06 06:50:33;;;;;;;4.00;2.73;;;;;;;;;;5057534;28;20206;-65
2023/05/06 06:53:02;;;;;;;3.03;2.80;;;;;;;;;;5057025;28;20737;-65
2023/05/06 06:55:33;;;;;;;3.00;2.43;;;;;;;;;;5057138;28;20238;-64
2023/05/06 06:58:01;;;;;;;5.87;2.80;;;;;;;;;;5057398;28;20221;-65
2023/05/06 07:00:29;;;;;;;4.30;2.47;;;;;;;;;;5044525;28;20210;-64
2023/05/06 07:02:57;;;;;;;3.60;2.40;;;;;;;;;;5061392;28;20257;-64
2023/05/06 07:05:25;;;;;;;6.53;2.33;;;;;;;;;;5061177;28;20568;-62
2023/05/06 07:07:54;;;;;;;5.30;2.60;;;;;;;;;;5060681;28;20211;-62
2023/05/06 07:10:23;;;;;;;4.60;2.50;;;;;;;;;;5061270;28;20214;-62
2023/05/06 07:12:51;;;;;;;3.20;2.43;;;;;;;;;;5061237;28;20211;-62
2023/05/06 07:15:19;;;;;;;4.23;2.50;;;;;;;;;;5060909;28;20235;-62
2023/05/06 07:17:47;;;;;;;2.83;2.40;;;;;;;;;;5060791;28;20296;-62
2023/05/06 07:20:16;;;;;;;3.33;2.60;;;;;;;;;;5061088;28;20207;-62
2023/05/06 07:22:44;;;;;;;3.23;2.30;;;;;;;;;;5060315;28;20329;-64
2023/05/06 07:25:12;;;;;;;4.87;2.70;;;;;;;;;;5060992;28;20233;-64
2023/05/06 07:27:41;;;;;;;2.97;2.20;;;;;;;;;;5060897;28;20199;-64
2023/05/06 07:30:10;;;;;;;3.47;1.90;;;;;;;;;;5061011;28;20207;-64
2023/05/06 07:32:39;;;;;;;2.70;2.07;;;;;;;;;;5060893;28;20293;-64
2023/05/06 07:35:08;;;;;;;4.23;2.20;;;;;;;;;;5060835;28;20237;-64
2023/05/06 07:37:37;;;;;;;5.10;2.47;;;;;;;;;;5060416;28;20265;-64
2023/05/06 07:40:08;;;;;;;3.23;2.40;;;;;;;;;;5060592;28;20546;-64
2023/05/06 07:42:36;;;;;;;2.57;2.30;;;;;;;;;;5060805;28;20261;-64
2023/05/06 07:45:06;;;;;;;2.47;2.27;;;;;;;;;;5060531;28;20288;-64
2023/05/06 07:47:35;;;;;;;2.40;2.00;;;;;;;;;;5060468;28;20230;-64
2023/05/06 07:50:03;;;;;;;2.87;2.20;;;;;;;;;;5060296;28;20276;-64
2023/05/06 07:52:31;;;;;;;3.17;1.90;;;;;;;;;;5060137;28;20299;-64
2023/05/06 07:54:59;;;;;;;4.63;2.00;;;;;;;;;;5060116;28;20233;-62
2023/05/06 07:57:27;;;;;;;2.67;2.00;;;;;;;;;;5059973;28;20693;-64
2023/05/06 07:59:57;;;;;;;4.47;2.10;;;;;;;;;;5060161;28;20207;-63
2023/05/06 08:02:26;;;;;;;3.60;2.13;;;;;;;;;;5059843;28;20238;-63
2023/05/06 08:04:55;;;;;;;2.97;2.13;;;;;;;;;;5060067;28;20202;-61
2023/05/06 08:07:22;;;;;;;2.17;1.90;;;;;;;;;;5059780;28;20235;-61
2023/05/06 08:09:50;;;;;;;4.20;1.60;;;;;;;;;;5060050;28;20234;-61
2023/05/06 08:12:18;;;;;;;2.50;1.50;;;;;;;;;;5058959;28;20207;-63
2023/05/06 08:14:46;;;;;;;3.57;1.60;;;;;;;;;;5059945;28;20217;-64
2023/05/06 08:17:14;;;;;;;3.13;1.10;;;;;;;;;;5060037;28;20262;-64
2023/05/06 08:19:44;;;;;;;1.73;1.40;;;;;;;;;;5059614;28;20677;-63
2023/05/06 08:22:12;;;;;;;1.50;1.40;;;;;;;;;;5059401;28;20234;-61
2023/05/06 08:24:39;;;;;;;2.23;1.20;;;;;;;;;;5020184;28;20211;-61
2023/05/06 08:27:07;;;;;;;3.00;1.20;;;;;;;;;;5019887;28;20221;-62
2023/05/06 08:29:35;;;;;;;1.33;1.10;;;;;;;;;;5019898;28;20239;-62
2023/05/06 08:32:03;;;;;;;1.20;1.10;;;;;;;;;;5019707;28;20553;-63
2023/05/06 08:34:33;;;;;;;2.73;1.30;;;;;;;;;;5020064;28;20208;-62
2023/05/06 08:37:05;;;;;;;1.30;1.20;;;;;;;;;;5019390;28;20235;-62
2023/05/06 08:39:33;;;;;;;1.40;1.13;;;;;;;;;;5019626;28;20295;-62
2023/05/06 08:42:03;;;;;;;2.40;1.37;;;;;;;;;;5019850;28;20216;-62
2023/05/06 08:44:32;;;;;;;2.60;1.40;;;;;;;;;;5019836;28;20216;-63
2023/05/06 08:47:00;;;;;;;2.20;1.43;;;;;;;;;;5019326;28;20242;-62
2023/05/06 08:49:28;;;;;;;1.73;1.20;;;;;;;;;;5019744;28;20212;-62
2023/05/06 08:51:56;;;;;;;1.40;1.20;;;;;;;;;;5019217;28;20739;-62
2023/05/06 08:54:26;;;;;;;1.17;1.07;;;;;;;;;;5019575;28;20295;-62
2023/05/06 08:56:56;;;;;;;1.47;0.93;;;;;;;;;;5019198;28;20250;-62
2023/05/06 08:59:25;;;;;;;2.93;1.20;;;;;;;;;;5019586;28;20214;-62
2023/05/06 09:01:53;;;;;;;2.07;1.23;;;;;;;;;;5019088;28;20235;-62
2023/05/06 09:04:21;;;;;;;1.47;1.20;;;;;;;;;;5019503;28;20214;-62
2023/05/06 09:06:49;;;;;;;1.83;1.30;;;;;;;;;;5019000;28;20227;-62
2023/05/06 09:09:17;;;;;;;2.20;1.10;;;;;;;;;;5019353;28;20239;-62
2023/05/06 09:11:52;;;;;;;4.73;1.30;;;;;;;;;;5019253;28;20212;-62
2023/05/06 09:14:21;;;;;;;3.63;1.70;;;;;;;;;;5019159;28;20223;-62
2023/05/06 09:16:50;;;;;;;2.27;1.20;;;;;;;;;;5019116;28;20259;-62
2023/05/06 09:19:18;;;;;;;2.33;1.20;;;;;;;;;;5018839;28;20589;-63
2023/05/06 09:21:47;;;;;;;1.00;1.00;;;;;;;;;;5015478;28;20219;-62
2023/05/06 09:24:16;;;;;;;1.47;1.13;;;;;;;;;;5051426;28;20230;-63
2023/05/06 09:26:45;;;;;;;1.20;1.10;;;;;;;;;;5058309;28;20690;-62
2023/05/06 09:29:14;;;;;;;1.20;1.10;;;;;;;;;;5058304;28;20210;-62
2023/05/06 09:31:43;;;;;;;1.10;1.10;;;;;;;;;;5058357;28;20713;-63
2023/05/06 09:34:11;;;;;;;2.70;1.50;;;;;;;;;;5055087;28;20619;-62
2023/05/06 09:36:39;;;;;;;2.77;1.30;;;;;;;;;;5057984;28;20223;-62
2023/05/06 09:39:08;;;;;;;1.67;1.00;;;;;;;;;;5057978;28;20256;-62
2023/05/06 09:41:36;;;;;;;3.13;1.20;;;;;;;;;;5058480;28;20210;-63
2023/05/06 09:44:05;;;;;;;3.73;1.40;;;;;;;;;;5057968;28;20690;-64
2023/05/06 09:46:34;;;;;;;2.10;1.57;;;;;;;;;;5058275;28;20234;-61
2023/05/06 09:49:02;;;;;;;3.03;1.40;;;;;;;;;;5057918;28;20202;-64
2023/05/06 09:51:31;;;;;;;5.47;1.50;;;;;;;;;;5058274;28;20247;-64
2023/05/06 09:53:59;;;;;;;2.60;1.50;;;;;;;;;;5057776;28;20693;-64
2023/05/06 09:56:28;;;;;;;10.77;2.10;;;;;;;;;;5057830;28;20700;-65
2023/05/06 09:58:56;;;;;;;3.20;1.70;;;;;;;;;;5057888;28;20296;-65
2023/05/06 10:01:25;;;;;;;3.07;1.50;;;;;;;;;;5058017;28;20204;-65
2023/05/06 10:04:06;;;;;;;2.60;1.70;;;;;;;;;;5058274;28;20212;-64
2023/05/06 10:06:38;;;;;;;4.70;1.60;;;;;;;;;;5057425;28;20229;-64
2023/05/06 10:09:06;;;;;;;2.53;1.47;;;;;;;;;;5057659;28;20279;-62
2023/05/06 10:11:35;;;;;;;2.40;1.50;;;;;;;;;;5057997;28;20204;-62
2023/05/06 10:14:04;;;;;;;1.90;1.40;;;;;;;;;;5057905;28;20207;-64
2023/05/06 10:16:34;;;;;;;6.13;2.00;;;;;;;;;;5057854;28;20264;-64
2023/05/06 10:19:03;;;;;;;3.10;1.70;;;;;;;;;;5057659;28;20305;-64
2023/05/06 10:21:34;;;;;;;2.07;1.43;;;;;;;;;;5057859;28;20216;-63
2023/05/06 10:24:05;;;;;;;2.07;1.60;;;;;;;;;;5057186;28;20320;-64
2023/05/06 10:26:35;;;;;;;2.83;2.07;;;;;;;;;;5057487;28;20221;-64
2023/05/06 10:29:04;;;;;;;2.07;1.63;;;;;;;;;;5057008;28;20216;-64
2023/05/06 10:31:33;;;;;;;5.23;2.20;;;;;;;;;;5057717;28;20219;-63
2023/05/06 10:34:02;;;;;;;2.03;1.77;;;;;;;;;;5057673;28;20220;-64
2023/05/06 10:36:32;;;;;;;2.97;1.63;;;;;;;;;;5056967;28;20232;-64
2023/05/06 10:39:03;;;;;;;2.00;1.80;;;;;;;;;;5057384;28;20571;-64
2023/05/06 10:41:32;;;;;;;2.70;1.50;;;;;;;;;;5057725;28;20215;-64
2023/05/06 10:44:00;;;;;;;4.17;1.67;;;;;;;;;;5057577;28;20379;-64
2023/05/06 10:46:28;;;;;;;5.63;2.07;;;;;;;;;;5057328;28;20632;-64
2023/05/06 10:49:15;;;;;;;2.53;1.57;;;;;;;;;;5057515;28;20746;-64
2023/05/06 10:51:43;;;;;;;2.17;1.50;;;;;;;;;;5057399;28;20241;-64
2023/05/06 10:54:21;;;;;;;4.30;1.77;;;;;;;;;;5057812;28;20218;-64
2023/05/06 10:57:08;;;;;;;1.97;1.60;;;;;;;;;;5057419;28;20628;-63
2023/05/06 10:59:36;;;;;;;1.70;1.47;;;;;;;;;;5057054;28;20713;-64
2023/05/06 11:02:08;;;;;;;3.33;2.37;;;;;;;;;;5057233;28;20207;-64
2023/05/06 11:04:36;;;;;;;5.23;3.23;;;;;;;;;;5057203;28;20204;-64
2023/05/06 11:07:07;;;;;;;3.03;2.70;;;;;;;;;;5057163;28;20261;-64
2023/05/06 11:09:53;;;;;;;2.73;2.53;;;;;;;;;;5057744;28;20573;-64
2023/05/06 11:12:21;;;;;;;6.10;4.33;;;;;;;;;;5057154;28;20206;-64
2023/05/06 11:14:49;;;;;;;3.10;2.30;;;;;;;;;;5056920;28;20614;-64
2023/05/06 11:17:30;;;;;;;3.03;2.30;;;;;;;;;;5057078;28;20561;-64
2023/05/06 11:20:16;;;;;;;4.70;1.83;;;;;;;;;;5057234;28;20232;-64
2023/05/06 11:22:44;;;;;;;1.77;1.67;;;;;;;;;;5056617;28;20248;-64
2023/05/06 11:25:13;;;;;;;2.07;1.87;;;;;;;;;;5057530;28;20773;-64
2023/05/06 11:27:41;;;;;;;4.37;1.70;;;;;;;;;;5056954;28;20245;-64
2023/05/06 11:30:13;;;;;;;1.83;1.50;;;;;;;;;;5057131;28;20225;-64
2023/05/06 11:32:42;;;;;;;5.10;3.30;;;;;;;;;;5057237;28;20243;-64
2023/05/06 11:35:11;;;;;;;2.13;1.50;;;;;;;;;;5057095;28;20265;-64
2023/05/06 11:37:39;;;;;;;7.90;4.70;;;;;;;;;;5056873;28;20244;-64
2023/05/06 11:40:15;;;;;;;3.97;3.13;;;;;;;;;;5057083;28;20289;-64
2023/05/06 11:42:43;;;;;;;2.53;2.10;;;;;;;;;;5057129;28;20215;-64
2023/05/06 11:45:11;;;;;;;2.20;2.00;;;;;;;;;;5056870;28;20733;-64
2023/05/06 11:47:44;;;;;;;3.13;2.00;;;;;;;;;;5058852;28;20312;-64
2023/05/06 11:50:11;;;;;;;2.20;1.50;;;;;;;;;;5060567;28;20205;-64
2023/05/06 11:52:40;;;;;;;2.17;2.00;;;;;;;;;;5060370;28;20202;-64
2023/05/06 11:55:09;;;;;;;2.67;1.93;;;;;;;;;;5060405;28;20252;-65
2023/05/06 11:57:45;;;;;;;4.97;2.93;;;;;;;;;;5060259;28;20209;-65
2023/05/06 12:00:13;;;;;;;2.10;1.73;;;;;;;;;;5060225;28;20258;-64
2023/05/06 12:02:41;;;;;;;4.93;2.23;;;;;;;;;;5060244;28;20210;-64
2023/05/06 12:05:09;;;;;;;2.03;1.80;;;;;;;;;;5060355;28;20687;-64
2023/05/06 12:07:37;;;;;;;4.33;2.20;;;;;;;;;;5060120;28;20206;-65
2023/05/06 12:10:06;;;;;;;4.30;1.87;;;;;;;;;;5060232;28;20207;-63
2023/05/06 12:12:35;;;;;;;3.27;2.17;;;;;;;;;;5060054;28;20571;-63
2023/05/06 12:15:05;;;;;;;3.27;2.67;;;;;;;;;;5059919;28;20214;-64
2023/05/06 12:17:33;;;;;;;2.37;2.17;;;;;;;;;;5059921;28;20213;-65
2023/05/06 12:20:01;;;;;;;2.83;1.93;;;;;;;;;;5060650;28;20236;-65
2023/05/06 12:22:29;;;;;;;3.00;2.53;;;;;;;;;;5059566;28;20617;-65
2023/05/06 12:24:56;;;;;;;2.23;2.03;;;;;;;;;;5059990;28;20273;-63
2023/05/06 12:27:30;;;;;;;2.47;1.83;;;;;;;;;;5059810;28;20204;-65
2023/05/06 12:29:59;;;;;;;3.60;1.80;;;;;;;;;;5060073;28;20207;-65
2023/05/06 12:32:28;;;;;;;8.03;2.30;;;;;;;;;;5059518;28;20243;-64
2023/05/06 12:34:57;;;;;;;1.97;1.80;;;;;;;;;;5059825;28;20651;-63
2023/05/06 12:37:25;;;;;;;2.37;2.03;;;;;;;;;;5059253;28;20354;-64
2023/05/06 12:39:53;;;;;;;2.97;2.20;;;;;;;;;;5059593;28;20696;-65
2023/05/06 12:42:24;;;;;;;2.47;2.10;;;;;;;;;;5059381;28;20582;-63
2023/05/06 12:44:52;;;;;;;5.20;2.40;;;;;;;;;;5059506;28;20372;-63
2023/05/06 12:47:21;;;;;;;4.90;2.27;;;;;;;;;;5059692;28;20720;-63
2023/05/06 12:49:50;;;;;;;8.70;2.40;;;;;;;;;;5059392;28;20210;-63
2023/05/06 12:52:19;;;;;;;2.70;2.10;;;;;;;;;;5059484;28;20212;-63
2023/05/06 12:54:47;;;;;;;5.17;2.60;;;;;;;;;;5059352;28;20211;-63
2023/05/06 12:57:14;;;;;;;3.63;2.30;;;;;;;;;;5059031;28;20204;-65
2023/05/06 13:03:04;;;;;;;2.83;2.20;;;;;;;;;;5058970;28;20186;-65
2023/05/06 13:05:33;;;;;;;2.47;2.00;;;;;;;;;;5059209;28;20265;-65
2023/05/06 13:08:01;;;;;;;4.10;2.10;;;;;;;;;;5058554;28;20206;-65
2023/05/06 13:10:29;;;;;;;4.17;2.70;;;;;;;;;;5059139;28;20203;-66
2023/05/06 13:12:57;;;;;;;2.00;1.80;;;;;;;;;;5059054;28;20238;-63
2023/05/06 13:15:25;;;;;;;2.83;2.13;;;;;;;;;;5058944;28;20237;-63
2023/05/06 13:17:53;;;;;;;3.10;2.43;;;;;;;;;;5058592;28;20765;-63
2023/05/06 13:20:21;;;;;;;3.23;2.60;;;;;;;;;;5058711;28;20296;-64
2023/05/06 13:22:51;;;;;;;2.00;1.90;;;;;;;;;;5058471;28;20241;-65
2023/05/06 13:25:22;;;;;;;3.03;2.43;;;;;;;;;;5058837;28;20223;-65
2023/05/06 13:27:50;;;;;;;2.50;1.97;;;;;;;;;;5058370;28;20242;-65
2023/05/06 13:30:18;;;;;;;2.20;2.03;;;;;;;;;;5058417;28;20227;-64
2023/05/06 13:32:46;;;;;;;2.93;2.20;;;;;;;;;;5058320;28;20217;-65
2023/05/06 13:35:14;;;;;;;4.27;2.70;;;;;;;;;;5058292;28;20233;-63
2023/05/06 13:37:42;;;;;;;4.40;2.40;;;;;;;;;;5058316;28;20215;-63
2023/05/06 13:40:13;;;;;;;2.50;2.30;;;;;;;;;;5058314;28;20266;-64
2023/05/06 13:42:41;;;;;;;2.53;2.10;;;;;;;;;;5058319;28;20259;-64
2023/05/06 13:45:09;;;;;;;2.07;1.93;;;;;;;;;;5058418;28;20237;-64
2023/05/06 13:47:41;;;;;;;2.93;2.63;;;;;;;;;;5058381;28;20212;-64
2023/05/06 13:50:09;;;;;;;3.03;2.37;;;;;;;;;;5058395;28;20266;-64
2023/05/06 13:52:40;;;;;;;3.63;2.30;;;;;;;;;;5057870;28;20615;-64
2023/05/06 13:55:08;;;;;;;3.33;2.30;;;;;;;;;;5057848;28;20730;-64
2023/05/06 13:57:38;;;;;;;3.57;2.50;;;;;;;;;;5058066;28;20199;-64
2023/05/06 14:00:07;;;;;;;5.63;2.43;;;;;;;;;;5058091;28;20234;-63
2023/05/06 14:02:35;;;;;;;3.40;2.37;;;;;;;;;;5058074;28;20211;-63
2023/05/06 14:05:03;;;;;;;4.47;2.77;;;;;;;;;;5057839;28;20207;-63
2023/05/06 14:07:31;;;;;;;3.70;2.70;;;;;;;;;;5057660;28;20254;-65
2023/05/06 14:09:59;;;;;;;3.13;2.60;;;;;;;;;;5057184;28;20567;-64
2023/05/06 14:12:27;;;;;;;7.13;2.47;;;;;;;;;;5057462;28;20671;-63
2023/05/06 14:14:57;;;;;;;5.90;2.60;;;;;;;;;;5057782;28;20214;-63
2023/05/06 14:17:25;;;;;;;2.47;2.23;;;;;;;;;;5057842;28;20213;-65
2023/05/06 14:19:53;;;;;;;2.93;2.10;;;;;;;;;;5057729;28;20227;-65
2023/05/06 14:22:21;;;;;;;2.67;2.47;;;;;;;;;;5057501;28;20211;-66
2023/05/06 14:24:49;;;;;;;2.57;2.33;;;;;;;;;;5057623;28;20568;-63
2023/05/06 14:27:16;;;;;;;3.43;2.60;;;;;;;;;;5057818;28;20209;-64
2023/05/06 14:29:45;;;;;;;3.60;2.40;;;;;;;;;;5057507;28;20572;-63
2023/05/06 14:32:14;;;;;;;4.13;2.07;;;;;;;;;;5057628;28;20209;-64
2023/05/06 14:34:42;;;;;;;4.93;2.20;;;;;;;;;;5057852;28;20208;-64
2023/05/06 14:37:10;;;;;;;2.70;2.20;;;;;;;;;;5057238;28;20642;-64
2023/05/06 14:39:40;;;;;;;3.80;2.30;;;;;;;;;;5057430;28;20204;-64
2023/05/06 14:42:09;;;;;;;4.03;2.03;;;;;;;;;;5057391;28;20290;-64
2023/05/06 14:44:39;;;;;;;2.07;1.90;;;;;;;;;;5057626;28;20222;-64
2023/05/06 14:47:07;;;;;;;2.30;2.10;;;;;;;;;;5057328;28;20238;-64
2023/05/06 14:49:36;;;;;;;3.83;2.37;;;;;;;;;;5057893;28;20227;-64
2023/05/06 14:52:04;;;;;;;4.13;2.23;;;;;;;;;;5057358;28;20229;-64
2023/05/06 14:54:32;;;;;;;4.33;2.30;;;;;;;;;;5057653;28;20296;-64
2023/05/06 14:57:01;;;;;;;3.10;2.40;;;;;;;;;;5057463;28;20251;-63